Yuma, AZ

9:26 PM MST on December 09, 2016 (GMT -0700)
El Pueblocito | | Change Station

Elev 121 ft 32.70 °N, 114.64 °W | Updated 4 seconds ago

Partly Cloudy
Partly Cloudy
57.4 °F
Feels Like 57.4 °F
N
3.7
Wind Variable Wind from ESE

Today
High -- | Low -- °F
--% Chance of Precip.
Yesterday
High -- | Low -- °F
Precip. -- in
Pressure 30.14 in
Visibility 10.0 miles
Clouds Clear
Dew Point 26 °F
Humidity 30%
Rainfall 0.00 in
Snow Depth Not available.
7:29 AM 5:32 PM
Waxing Gibbous, 80% visible
METAR KNYL 100357Z AUTO 01003KT 10SM CLR 16/M04 A3013 RMK AO2 SLP204 T01561044
Pressure 30.14 in
Visibility 10.0 miles
Clouds Clear
Dew Point 26 °F
Humidity 30%
Rainfall 0.00 in
Snow Depth Not available.
7:29 AM 5:32 PM
Waxing Gibbous, 80% visible
METAR KNYL 100357Z AUTO 01003KT 10SM CLR 16/M04 A3013 RMK AO2 SLP204 T01561044

10-Day Weather Forecast

Almanac

Astronomy

Dec. 09, 2016 Rise Set
Actual Time
Civil Twilight
Nautical Twilight
Astronomical Twilight
Moon
Length of Visible Light
Length of Day
Tomorrow will be .
, % of the Moon is Illuminated

Today's Extremes

State Highs State Lows

Community

WunderPhotos

Upload Photos

1,956,529 photos uploaded!

WunderBlog® & News

Nearby

Air Quality

  Air Quality AQ Index Pollutant
Not available.

Snow Depth

Station Depth Elevation

Earthquake Activity

City Distance Mag. Time & Date
Minimum magnitude displayed is 2.5.

Coastal Water Temperatures

Place Temperature

Stations

Nearby Weather Stations

Station Location Temp. Windchill Dew Point Humidity Wind Precip. Elev Updated Type
                   

Watches & Warnings

There are currently no watches in effect.